sensor_id;sensor_type;location;lat;lon;timestamp;pressure;altitude;pressure_sealevel;temperature;humidity
41800;BME280;27468;47.460;19.034;2022-07-17T00:01:28;100994.00;;;20.32;36.68
41800;BME280;27468;47.460;19.034;2022-07-17T00:03:54;100987.22;;;20.25;36.57
41800;BME280;27468;47.460;19.034;2022-07-17T00:06:19;100993.59;;;20.22;36.60
41800;BME280;27468;47.460;19.034;2022-07-17T00:08:45;100990.06;;;20.22;36.86
41800;BME280;27468;47.460;19.034;2022-07-17T00:11:10;101007.59;;;20.27;36.91
41800;BME280;27468;47.460;19.034;2022-07-17T00:13:36;100998.19;;;20.20;36.97
41800;BME280;27468;47.460;19.034;2022-07-17T00:16:02;101009.56;;;20.24;36.96
41800;BME280;27468;47.460;19.034;2022-07-17T00:18:27;101011.78;;;20.16;36.92
41800;BME280;27468;47.460;19.034;2022-07-17T00:20:53;101018.16;;;20.13;37.23
41800;BME280;27468;47.460;19.034;2022-07-17T00:23:18;101014.63;;;20.13;37.24
41800;BME280;27468;47.460;19.034;2022-07-17T00:25:44;101000.03;;;20.01;37.27
41800;BME280;27468;47.460;19.034;2022-07-17T00:28:09;100991.78;;;19.87;37.29
41800;BME280;27468;47.460;19.034;2022-07-17T00:30:35;101018.69;;;20.02;37.75
41800;BME280;27468;47.460;19.034;2022-07-17T00:33:01;101010.72;;;20.01;37.65
41800;BME280;27468;47.460;19.034;2022-07-17T00:35:27;101010.88;;;19.98;37.32
41800;BME280;27468;47.460;19.034;2022-07-17T00:37:52;101014.00;;;19.89;37.60
41800;BME280;27468;47.460;19.034;2022-07-17T00:40:20;101011.53;;;19.84;37.99
41800;BME280;27468;47.460;19.034;2022-07-17T00:42:47;101007.56;;;19.74;37.76
41800;BME280;27468;47.460;19.034;2022-07-17T00:45:13;101008.66;;;19.70;38.13
41800;BME280;27468;47.460;19.034;2022-07-17T00:47:55;101027.00;;;19.77;38.11
41800;BME280;27468;47.460;19.034;2022-07-17T00:50:26;101002.81;;;19.62;38.16
41800;BME280;27468;47.460;19.034;2022-07-17T00:52:52;101016.03;;;19.65;38.22
41800;BME280;27468;47.460;19.034;2022-07-17T00:55:17;101034.31;;;19.74;38.37
41800;BME280;27468;47.460;19.034;2022-07-17T00:57:45;100992.81;;;19.46;38.71
41800;BME280;27468;47.460;19.034;2022-07-17T01:00:11;101016.63;;;19.53;38.56
41800;BME280;27468;47.460;19.034;2022-07-17T01:02:38;101024.66;;;19.53;38.68
41800;BME280;27468;47.460;19.034;2022-07-17T01:05:04;101029.44;;;19.44;38.74
41800;BME280;27468;47.460;19.034;2022-07-17T01:07:31;101040.88;;;19.48;38.97
41800;BME280;27468;47.460;19.034;2022-07-17T01:09:57;101043.63;;;19.46;38.87
41800;BME280;27468;47.460;19.034;2022-07-17T01:12:23;101037.91;;;19.35;39.11
41800;BME280;27468;47.460;19.034;2022-07-17T01:14:50;101046.72;;;19.37;39.31
41800;BME280;27468;47.460;19.034;2022-07-17T01:17:17;101048.88;;;19.29;39.55
41800;BME280;27468;47.460;19.034;2022-07-17T01:19:42;101045.13;;;19.33;39.22
41800;BME280;27468;47.460;19.034;2022-07-17T01:22:07;101044.47;;;19.28;39.57
41800;BME280;27468;47.460;19.034;2022-07-17T01:24:33;101029.25;;;19.10;39.75
41800;BME280;27468;47.460;19.034;2022-07-17T01:26:58;101032.78;;;19.10;39.52
41800;BME280;27468;47.460;19.034;2022-07-17T01:29:24;101056.34;;;19.21;39.62
41800;BME280;27468;47.460;19.034;2022-07-17T01:31:51;101045.28;;;19.10;39.89
41800;BME280;27468;47.460;19.034;2022-07-17T01:34:16;101016.91;;;18.87;39.86
41800;BME280;27468;47.460;19.034;2022-07-17T01:36:42;101043.84;;;19.03;40.01
41800;BME280;27468;47.460;19.034;2022-07-17T01:39:08;101034.63;;;18.90;40.24
41800;BME280;27468;47.460;19.034;2022-07-17T01:41:34;101034.22;;;18.78;40.04
41800;BME280;27468;47.460;19.034;2022-07-17T01:44:00;101042.16;;;18.80;40.17
41800;BME280;27468;47.460;19.034;2022-07-17T01:46:25;101067.63;;;18.89;40.07
41800;BME280;27468;47.460;19.034;2022-07-17T01:48:51;101069.41;;;18.88;40.01
41800;BME280;27468;47.460;19.034;2022-07-17T01:51:16;101055.03;;;18.70;40.21
41800;BME280;27468;47.460;19.034;2022-07-17T01:53:42;101061.31;;;18.69;40.43
41800;BME280;27468;47.460;19.034;2022-07-17T01:56:08;101048.16;;;18.65;40.44
41800;BME280;27468;47.460;19.034;2022-07-17T01:58:33;101067.41;;;18.73;40.48
41800;BME280;27468;47.460;19.034;2022-07-17T02:00:59;101059.03;;;18.60;41.08
41800;BME280;27468;47.460;19.034;2022-07-17T02:03:24;101080.94;;;18.68;41.35
41800;BME280;27468;47.460;19.034;2022-07-17T02:05:50;101085.63;;;18.63;41.51
41800;BME280;27468;47.460;19.034;2022-07-17T02:08:16;101060.53;;;18.45;41.38
41800;BME280;27468;47.460;19.034;2022-07-17T02:10:41;101077.00;;;18.55;41.58
41800;BME280;27468;47.460;19.034;2022-07-17T02:13:07;101084.34;;;18.50;41.73
41800;BME280;27468;47.460;19.034;2022-07-17T02:15:32;101087.38;;;18.42;41.82
41800;BME280;27468;47.460;19.034;2022-07-17T02:17:58;101044.91;;;18.14;41.88
41800;BME280;27468;47.460;19.034;2022-07-17T02:20:23;101104.31;;;18.41;42.47
41800;BME280;27468;47.460;19.034;2022-07-17T02:22:49;101098.34;;;18.35;42.96
41800;BME280;27468;47.460;19.034;2022-07-17T02:25:15;101101.38;;;18.26;42.04
41800;BME280;27468;47.460;19.034;2022-07-17T02:27:41;101099.72;;;18.23;42.21
41800;BME280;27468;47.460;19.034;2022-07-17T02:30:17;101103.44;;;18.19;42.95
41800;BME280;27468;47.460;19.034;2022-07-17T02:32:43;101092.59;;;18.00;43.09
41800;BME280;27468;47.460;19.034;2022-07-17T02:35:11;101091.38;;;17.87;43.28
41800;BME280;27468;47.460;19.034;2022-07-17T02:37:37;101119.53;;;17.94;43.94
41800;BME280;27468;47.460;19.034;2022-07-17T02:40:03;101133.78;;;17.93;43.66
41800;BME280;27468;47.460;19.034;2022-07-17T02:42:30;101086.28;;;17.56;44.18
41800;BME280;27468;47.460;19.034;2022-07-17T02:44:57;101105.66;;;17.61;44.18
41800;BME280;27468;47.460;19.034;2022-07-17T02:47:25;101096.13;;;17.54;44.43
41800;BME280;27468;47.460;19.034;2022-07-17T02:49:52;101132.13;;;17.67;44.43
41800;BME280;27468;47.460;19.034;2022-07-17T02:52:18;101110.63;;;17.47;44.61
41800;BME280;27468;47.460;19.034;2022-07-17T02:54:44;101129.94;;;17.54;44.91
41800;BME280;27468;47.460;19.034;2022-07-17T02:57:09;101105.78;;;17.33;44.95
41800;BME280;27468;47.460;19.034;2022-07-17T02:59:35;101079.13;;;17.10;44.95
41800;BME280;27468;47.460;19.034;2022-07-17T03:02:00;101128.94;;;17.33;45.53
41800;BME280;27468;47.460;19.034;2022-07-17T03:04:26;101112.56;;;17.19;45.30
41800;BME280;27468;47.460;19.034;2022-07-17T03:06:51;101124.19;;;17.16;45.68
41800;BME280;27468;47.460;19.034;2022-07-17T03:09:17;101132.84;;;17.23;45.64
41800;BME280;27468;47.460;19.034;2022-07-17T03:11:42;101105.22;;;17.00;45.70
41800;BME280;27468;47.460;19.034;2022-07-17T03:14:08;101142.09;;;17.12;46.16
41800;BME280;27468;47.460;19.034;2022-07-17T03:16:33;101137.13;;;17.02;46.04
41800;BME280;27468;47.460;19.034;2022-07-17T03:18:59;101146.97;;;17.00;46.32
41800;BME280;27468;47.460;19.034;2022-07-17T03:21:24;101133.34;;;16.82;46.43
41800;BME280;27468;47.460;19.034;2022-07-17T03:23:49;101161.31;;;16.96;46.49
41800;BME280;27468;47.460;19.034;2022-07-17T03:26:15;101162.53;;;16.86;46.65
41800;BME280;27468;47.460;19.034;2022-07-17T03:28:40;101162.56;;;16.84;46.65
41800;BME280;27468;47.460;19.034;2022-07-17T03:31:06;101164.41;;;16.82;46.81
41800;BME280;27468;47.460;19.034;2022-07-17T03:33:31;101176.03;;;16.79;46.89
41800;BME280;27468;47.460;19.034;2022-07-17T03:35:56;101141.97;;;16.63;46.63
41800;BME280;27468;47.460;19.034;2022-07-17T03:38:23;101171.75;;;16.75;46.95
41800;BME280;27468;47.460;19.034;2022-07-17T03:40:48;101182.38;;;16.75;46.92
41800;BME280;27468;47.460;19.034;2022-07-17T03:43:14;101164.75;;;16.73;47.09
41800;BME280;27468;47.460;19.034;2022-07-17T03:45:39;101146.66;;;16.55;46.85
41800;BME280;27468;47.460;19.034;2022-07-17T03:48:06;101176.31;;;16.72;47.24
41800;BME280;27468;47.460;19.034;2022-07-17T03:50:32;101178.16;;;16.70;47.01
41800;BME280;27468;47.460;19.034;2022-07-17T03:52:58;101147.63;;;16.52;47.29
41800;BME280;27468;47.460;19.034;2022-07-17T03:55:23;101168.34;;;16.72;47.61
41800;BME280;27468;47.460;19.034;2022-07-17T03:57:48;101175.91;;;17.35;46.79
41800;BME280;27468;47.460;19.034;2022-07-17T04:00:14;101187.72;;;18.25;45.39
41800;BME280;27468;47.460;19.034;2022-07-17T04:02:40;101177.09;;;19.10;43.69
41800;BME280;27468;47.460;19.034;2022-07-17T04:05:06;101169.13;;;19.90;41.91
41800;BME280;27468;47.460;19.034;2022-07-17T04:07:38;101177.38;;;20.80;40.50
41800;BME280;27468;47.460;19.034;2022-07-17T04:10:05;101171.88;;;21.52;38.75
41800;BME280;27468;47.460;19.034;2022-07-17T04:12:31;101184.03;;;22.25;37.76
41800;BME280;27468;47.460;19.034;2022-07-17T04:14:57;101132.91;;;22.42;36.37
41800;BME280;27468;47.460;19.034;2022-07-17T04:17:24;101177.78;;;23.17;35.39
41800;BME280;27468;47.460;19.034;2022-07-17T04:19:49;101186.28;;;23.69;34.26
41800;BME280;27468;47.460;19.034;2022-07-17T04:22:15;101186.00;;;24.17;33.25
41800;BME280;27468;47.460;19.034;2022-07-17T04:24:41;101184.78;;;24.63;30.82
41800;BME280;27468;47.460;19.034;2022-07-17T04:27:06;101171.81;;;24.83;29.95
41800;BME280;27468;47.460;19.034;2022-07-17T04:29:32;101147.56;;;24.95;29.75
41800;BME280;27468;47.460;19.034;2022-07-17T04:31:58;101181.25;;;25.42;28.53
41800;BME280;27468;47.460;19.034;2022-07-17T04:34:23;101148.34;;;25.37;28.19
41800;BME280;27468;47.460;19.034;2022-07-17T04:36:50;101190.06;;;25.96;27.69
41800;BME280;27468;47.460;19.034;2022-07-17T04:39:15;101192.59;;;26.23;27.86
41800;BME280;27468;47.460;19.034;2022-07-17T04:41:40;101192.38;;;26.39;27.43
41800;BME280;27468;47.460;19.034;2022-07-17T04:44:06;101199.75;;;26.37;26.16
41800;BME280;27468;47.460;19.034;2022-07-17T04:46:31;101200.91;;;26.46;25.59
41800;BME280;27468;47.460;19.034;2022-07-17T04:48:57;101184.06;;;26.42;25.29
41800;BME280;27468;47.460;19.034;2022-07-17T04:51:22;101196.31;;;26.59;25.06
41800;BME280;27468;47.460;19.034;2022-07-17T04:53:47;101185.59;;;26.57;25.22
41800;BME280;27468;47.460;19.034;2022-07-17T04:56:13;101194.16;;;26.88;25.04
41800;BME280;27468;47.460;19.034;2022-07-17T04:58:38;101197.50;;;26.91;24.54
41800;BME280;27468;47.460;19.034;2022-07-17T05:01:04;101207.09;;;26.95;24.39
41800;BME280;27468;47.460;19.034;2022-07-17T05:03:29;101192.63;;;26.96;24.37
41800;BME280;27468;47.460;19.034;2022-07-17T05:05:55;101198.22;;;27.17;24.28
41800;BME280;27468;47.460;19.034;2022-07-17T05:08:20;101216.63;;;27.60;23.61
41800;BME280;27468;47.460;19.034;2022-07-17T05:10:46;101171.00;;;27.43;23.60
41800;BME280;27468;47.460;19.034;2022-07-17T05:13:11;101214.56;;;27.40;23.34
41800;BME280;27468;47.460;19.034;2022-07-17T05:15:37;101220.00;;;26.92;24.21
41800;BME280;27468;47.460;19.034;2022-07-17T05:18:03;101197.16;;;26.36;24.67
41800;BME280;27468;47.460;19.034;2022-07-17T05:20:28;101209.09;;;25.82;25.45
41800;BME280;27468;47.460;19.034;2022-07-17T05:22:54;101201.25;;;25.40;26.17
41800;BME280;27468;47.460;19.034;2022-07-17T05:25:19;101215.69;;;24.99;27.01
41800;BME280;27468;47.460;19.034;2022-07-17T05:27:45;101212.88;;;24.74;27.23
41800;BME280;27468;47.460;19.034;2022-07-17T05:30:10;101230.63;;;24.63;27.12
41800;BME280;27468;47.460;19.034;2022-07-17T05:32:36;101228.44;;;24.27;27.82
41800;BME280;27468;47.460;19.034;2022-07-17T05:35:01;101234.69;;;23.99;28.33
41800;BME280;27468;47.460;19.034;2022-07-17T05:37:27;101217.09;;;23.50;28.47
41800;BME280;27468;47.460;19.034;2022-07-17T05:39:52;101223.06;;;22.95;29.43
41800;BME280;27468;47.460;19.034;2022-07-17T05:42:18;101246.03;;;22.69;29.98
41800;BME280;27468;47.460;19.034;2022-07-17T05:44:43;101240.47;;;22.40;30.74
41800;BME280;27468;47.460;19.034;2022-07-17T05:47:09;101247.69;;;22.07;30.91
41800;BME280;27468;47.460;19.034;2022-07-17T05:49:34;101232.66;;;21.70;31.85
41800;BME280;27468;47.460;19.034;2022-07-17T05:52:00;101239.66;;;21.55;32.10
41800;BME280;27468;47.460;19.034;2022-07-17T05:54:25;101245.28;;;21.33;31.76
41800;BME280;27468;47.460;19.034;2022-07-17T05:56:50;101237.72;;;21.24;32.44
41800;BME280;27468;47.460;19.034;2022-07-17T05:59:16;101260.59;;;21.31;32.42
41800;BME280;27468;47.460;19.034;2022-07-17T06:01:42;101222.63;;;21.22;31.98
41800;BME280;27468;47.460;19.034;2022-07-17T06:04:07;101228.72;;;21.06;31.81
41800;BME280;27468;47.460;19.034;2022-07-17T06:06:33;101260.75;;;21.09;32.26
41800;BME280;27468;47.460;19.034;2022-07-17T06:08:58;101258.44;;;21.02;32.31
41800;BME280;27468;47.460;19.034;2022-07-17T06:11:26;101256.06;;;20.96;32.21
41800;BME280;27468;47.460;19.034;2022-07-17T06:13:51;101261.06;;;20.85;32.79
41800;BME280;27468;47.460;19.034;2022-07-17T06:16:16;101286.72;;;20.90;32.70
41800;BME280;27468;47.460;19.034;2022-07-17T06:18:42;101266.16;;;20.91;32.83
41800;BME280;27468;47.460;19.034;2022-07-17T06:21:07;101261.72;;;20.90;33.08
41800;BME280;27468;47.460;19.034;2022-07-17T06:23:33;101279.53;;;20.91;33.37
41800;BME280;27468;47.460;19.034;2022-07-17T06:25:58;101258.53;;;20.82;32.90
41800;BME280;27468;47.460;19.034;2022-07-17T06:28:24;101262.28;;;20.79;32.34
41800;BME280;27468;47.460;19.034;2022-07-17T06:30:49;101256.03;;;20.79;32.76
41800;BME280;27468;47.460;19.034;2022-07-17T06:33:15;101258.81;;;20.77;32.96
41800;BME280;27468;47.460;19.034;2022-07-17T06:35:40;101258.41;;;20.85;32.81
41800;BME280;27468;47.460;19.034;2022-07-17T06:38:06;101264.78;;;20.82;32.63
41800;BME280;27468;47.460;19.034;2022-07-17T06:40:31;101277.75;;;20.91;32.52
41800;BME280;27468;47.460;19.034;2022-07-17T06:42:56;101245.91;;;20.66;32.95
41800;BME280;27468;47.460;19.034;2022-07-17T06:45:22;101264.09;;;20.79;32.22
41800;BME280;27468;47.460;19.034;2022-07-17T06:47:47;101253.72;;;20.71;32.44
41800;BME280;27468;47.460;19.034;2022-07-17T06:50:13;101282.53;;;20.85;31.87
41800;BME280;27468;47.460;19.034;2022-07-17T06:52:38;101288.03;;;20.82;31.36
41800;BME280;27468;47.460;19.034;2022-07-17T06:55:04;101259.25;;;20.68;31.19
41800;BME280;27468;47.460;19.034;2022-07-17T06:57:29;101240.13;;;20.57;31.56
41800;BME280;27468;47.460;19.034;2022-07-17T06:59:55;101286.06;;;20.85;31.40
41800;BME280;27468;47.460;19.034;2022-07-17T07:02:20;101265.91;;;20.78;30.41
41800;BME280;27468;47.460;19.034;2022-07-17T07:04:46;101283.03;;;20.93;30.37
41800;BME280;27468;47.460;19.034;2022-07-17T07:07:11;101227.53;;;20.59;30.19
41800;BME280;27468;47.460;19.034;2022-07-17T07:09:37;101243.81;;;20.73;30.15
41800;BME280;27468;47.460;19.034;2022-07-17T07:12:03;101273.53;;;20.86;30.16
41800;BME280;27468;47.460;19.034;2022-07-17T07:14:28;101229.53;;;20.72;30.81
41800;BME280;27468;47.460;19.034;2022-07-17T07:16:54;101283.81;;;20.95;30.55
41800;BME280;27468;47.460;19.034;2022-07-17T07:19:19;101283.97;;;20.92;30.70
41800;BME280;27468;47.460;19.034;2022-07-17T07:21:45;101264.69;;;20.84;30.95
41800;BME280;27468;47.460;19.034;2022-07-17T07:24:10;101262.16;;;20.81;30.49
41800;BME280;27468;47.460;19.034;2022-07-17T07:26:35;101267.97;;;20.90;30.77
41800;BME280;27468;47.460;19.034;2022-07-17T07:29:04;101288.16;;;20.97;31.00
41800;BME280;27468;47.460;19.034;2022-07-17T07:31:29;101287.72;;;21.06;30.60
41800;BME280;27468;47.460;19.034;2022-07-17T07:33:55;101288.44;;;21.10;30.56
41800;BME280;27468;47.460;19.034;2022-07-17T07:36:20;101283.94;;;21.10;30.50
41800;BME280;27468;47.460;19.034;2022-07-17T07:38:46;101289.31;;;21.10;30.32
41800;BME280;27468;47.460;19.034;2022-07-17T07:41:11;101259.63;;;20.96;30.35
41800;BME280;27468;47.460;19.034;2022-07-17T07:43:37;101278.50;;;21.12;30.09
41800;BME280;27468;47.460;19.034;2022-07-17T07:46:03;101284.59;;;21.16;30.41
41800;BME280;27468;47.460;19.034;2022-07-17T07:48:29;101264.22;;;21.12;30.32
41800;BME280;27468;47.460;19.034;2022-07-17T07:50:54;101285.84;;;21.27;30.37
41800;BME280;27468;47.460;19.034;2022-07-17T07:53:20;101215.13;;;20.92;30.31
41800;BME280;27468;47.460;19.034;2022-07-17T07:55:45;101283.38;;;21.40;30.22
41800;BME280;27468;47.460;19.034;2022-07-17T07:58:12;101282.44;;;21.41;29.94
41800;BME280;27468;47.460;19.034;2022-07-17T08:00:39;101275.59;;;21.35;29.01
41800;BME280;27468;47.460;19.034;2022-07-17T08:03:05;101281.56;;;21.40;29.23
41800;BME280;27468;47.460;19.034;2022-07-17T08:05:32;101286.47;;;21.50;28.95
41800;BME280;27468;47.460;19.034;2022-07-17T08:07:57;101293.25;;;21.57;29.23
41800;BME280;27468;47.460;19.034;2022-07-17T08:10:23;101292.16;;;21.61;28.87
41800;BME280;27468;47.460;19.034;2022-07-17T08:12:49;101291.22;;;21.62;29.00
41800;BME280;27468;47.460;19.034;2022-07-17T08:15:16;101268.63;;;21.49;28.40
41800;BME280;27468;47.460;19.034;2022-07-17T08:17:42;101278.81;;;21.42;28.96
41800;BME280;27468;47.460;19.034;2022-07-17T08:20:08;101284.56;;;21.52;29.10
41800;BME280;27468;47.460;19.034;2022-07-17T08:22:34;101284.66;;;21.50;29.52
41800;BME280;27468;47.460;19.034;2022-07-17T08:24:59;101284.72;;;21.49;29.59
41800;BME280;27468;47.460;19.034;2022-07-17T08:27:25;101291.13;;;21.63;29.50
41800;BME280;27468;47.460;19.034;2022-07-17T08:29:50;101267.22;;;21.59;29.63
41800;BME280;27468;47.460;19.034;2022-07-17T08:32:16;101277.31;;;21.71;29.18
41800;BME280;27468;47.460;19.034;2022-07-17T08:34:41;101295.63;;;21.80;29.31
41800;BME280;27468;47.460;19.034;2022-07-17T08:37:06;101299.03;;;21.84;29.17
41800;BME280;27468;47.460;19.034;2022-07-17T08:39:32;101301.88;;;21.81;29.54
41800;BME280;27468;47.460;19.034;2022-07-17T08:41:57;101268.78;;;21.63;30.04
41800;BME280;27468;47.460;19.034;2022-07-17T08:44:23;101269.34;;;21.69;29.78
41800;BME280;27468;47.460;19.034;2022-07-17T08:46:49;101283.16;;;21.79;30.50
41800;BME280;27468;47.460;19.034;2022-07-17T08:49:20;101287.34;;;21.85;30.03
41800;BME280;27468;47.460;19.034;2022-07-17T08:51:46;101289.44;;;21.95;28.43
41800;BME280;27468;47.460;19.034;2022-07-17T08:54:12;101298.47;;;22.12;28.34
41800;BME280;27468;47.460;19.034;2022-07-17T08:56:37;101284.16;;;22.11;28.09
41800;BME280;27468;47.460;19.034;2022-07-17T08:59:03;101263.38;;;21.97;28.26
41800;BME280;27468;47.460;19.034;2022-07-17T09:01:29;101269.31;;;22.04;27.57
41800;BME280;27468;47.460;19.034;2022-07-17T09:03:55;101296.78;;;22.26;27.71
41800;BME280;27468;47.460;19.034;2022-07-17T09:06:22;101282.09;;;22.16;28.01
41800;BME280;27468;47.460;19.034;2022-07-17T09:08:48;101295.91;;;22.26;28.65
41800;BME280;27468;47.460;19.034;2022-07-17T09:11:13;101275.38;;;22.25;28.91
41800;BME280;27468;47.460;19.034;2022-07-17T09:13:44;101284.84;;;22.32;28.57
41800;BME280;27468;47.460;19.034;2022-07-17T09:16:11;101279.47;;;22.32;28.96
41800;BME280;27468;47.460;19.034;2022-07-17T09:18:45;101271.16;;;22.36;28.21
41800;BME280;27468;47.460;19.034;2022-07-17T09:21:20;101284.00;;;22.47;28.95
41800;BME280;27468;47.460;19.034;2022-07-17T09:24:03;101265.88;;;22.35;29.11
41800;BME280;27468;47.460;19.034;2022-07-17T09:26:30;101281.41;;;22.46;28.45
41800;BME280;27468;47.460;19.034;2022-07-17T09:28:58;101258.50;;;22.38;28.77
41800;BME280;27468;47.460;19.034;2022-07-17T09:31:29;101284.63;;;22.52;29.09
41800;BME280;27468;47.460;19.034;2022-07-17T09:33:56;101273.25;;;22.63;28.23
41800;BME280;27468;47.460;19.034;2022-07-17T09:36:22;101274.03;;;22.65;28.64
41800;BME280;27468;47.460;19.034;2022-07-17T09:38:53;101260.47;;;22.84;26.69
41800;BME280;27468;47.460;19.034;2022-07-17T09:41:20;101268.69;;;22.81;27.28
41800;BME280;27468;47.460;19.034;2022-07-17T09:43:53;101246.03;;;22.69;27.65
41800;BME280;27468;47.460;19.034;2022-07-17T09:48:50;101255.66;;;22.73;26.98
41800;BME280;27468;47.460;19.034;2022-07-17T09:51:26;101258.44;;;22.71;27.46
41800;BME280;27468;47.460;19.034;2022-07-17T09:53:58;101263.81;;;22.71;27.97
41800;BME280;27468;47.460;19.034;2022-07-17T09:56:26;101265.38;;;22.76;27.39
41800;BME280;27468;47.460;19.034;2022-07-17T09:58:54;101263.94;;;22.86;27.13
41800;BME280;27468;47.460;19.034;2022-07-17T10:01:20;101250.44;;;22.70;27.33
41800;BME280;27468;47.460;19.034;2022-07-17T10:03:46;101255.38;;;22.78;27.70
41800;BME280;27468;47.460;19.034;2022-07-17T10:06:14;101256.81;;;22.85;27.70
41800;BME280;27468;47.460;19.034;2022-07-17T10:08:41;101255.09;;;22.84;27.02
41800;BME280;27468;47.460;19.034;2022-07-17T10:11:07;101245.53;;;22.94;27.59
41800;BME280;27468;47.460;19.034;2022-07-17T10:13:35;101251.25;;;23.03;27.40
41800;BME280;27468;47.460;19.034;2022-07-17T10:16:02;101264.38;;;23.24;26.87
41800;BME280;27468;47.460;19.034;2022-07-17T10:18:54;101266.22;;;23.23;27.00
41800;BME280;27468;47.460;19.034;2022-07-17T10:21:24;101253.03;;;23.19;26.86
41800;BME280;27468;47.460;19.034;2022-07-17T10:26:41;101230.81;;;23.15;26.45
41800;BME280;27468;47.460;19.034;2022-07-17T10:31:55;101250.16;;;23.22;26.50
41800;BME280;27468;47.460;19.034;2022-07-17T10:35:00;101255.50;;;23.37;26.42
41800;BME280;27468;47.460;19.034;2022-07-17T10:40:05;101235.28;;;23.30;26.91
41800;BME280;27468;47.460;19.034;2022-07-17T10:45:25;101238.72;;;23.48;26.28
41800;BME280;27468;47.460;19.034;2022-07-17T10:48:02;101252.44;;;23.59;26.26
41800;BME280;27468;47.460;19.034;2022-07-17T10:50:40;101234.75;;;23.55;26.48
41800;BME280;27468;47.460;19.034;2022-07-17T10:53:12;101246.97;;;23.75;25.79
41800;BME280;27468;47.460;19.034;2022-07-17T10:55:42;101232.13;;;23.54;26.20
41800;BME280;27468;47.460;19.034;2022-07-17T11:00:39;101235.06;;;23.65;25.99
41800;BME280;27468;47.460;19.034;2022-07-17T11:03:12;101245.72;;;23.81;25.52
41800;BME280;27468;47.460;19.034;2022-07-17T11:05:38;101216.84;;;23.68;25.04
41800;BME280;27468;47.460;19.034;2022-07-17T11:08:04;101209.78;;;23.67;26.44
41800;BME280;27468;47.460;19.034;2022-07-17T11:10:36;101206.31;;;23.80;25.38
41800;BME280;27468;47.460;19.034;2022-07-17T11:13:15;101226.13;;;23.93;25.50
41800;BME280;27468;47.460;19.034;2022-07-17T11:15:42;101192.56;;;23.84;24.23
41800;BME280;27468;47.460;19.034;2022-07-17T11:18:20;101218.25;;;24.04;24.01
41800;BME280;27468;47.460;19.034;2022-07-17T11:20:54;101193.81;;;23.93;24.32
41800;BME280;27468;47.460;19.034;2022-07-17T11:23:21;101224.31;;;24.08;23.75
41800;BME280;27468;47.460;19.034;2022-07-17T11:30:59;101189.00;;;24.12;23.64
41800;BME280;27468;47.460;19.034;2022-07-17T11:33:26;101187.94;;;24.15;23.93
41800;BME280;27468;47.460;19.034;2022-07-17T11:35:52;101194.09;;;24.31;23.56
41800;BME280;27468;47.460;19.034;2022-07-17T11:38:27;101200.81;;;24.38;22.85
41800;BME280;27468;47.460;19.034;2022-07-17T11:40:54;101207.66;;;24.44;23.23
41800;BME280;27468;47.460;19.034;2022-07-17T11:43:20;101198.41;;;24.33;23.33
41800;BME280;27468;47.460;19.034;2022-07-17T11:45:46;101193.78;;;24.35;23.32
41800;BME280;27468;47.460;19.034;2022-07-17T11:48:12;101196.59;;;24.34;22.71
41800;BME280;27468;47.460;19.034;2022-07-17T11:50:37;101173.03;;;24.23;23.74
41800;BME280;27468;47.460;19.034;2022-07-17T11:53:04;101187.72;;;24.32;22.65
41800;BME280;27468;47.460;19.034;2022-07-17T11:55:37;101156.25;;;24.32;22.79
41800;BME280;27468;47.460;19.034;2022-07-17T11:58:03;101195.31;;;24.54;23.43
41800;BME280;27468;47.460;19.034;2022-07-17T12:00:28;101148.38;;;24.29;22.63
41800;BME280;27468;47.460;19.034;2022-07-17T12:03:03;101155.28;;;24.48;23.10
41800;BME280;27468;47.460;19.034;2022-07-17T12:05:31;101158.81;;;24.48;23.01
41800;BME280;27468;47.460;19.034;2022-07-17T12:07:57;101166.97;;;24.61;22.41
41800;BME280;27468;47.460;19.034;2022-07-17T12:10:25;101141.50;;;24.52;23.34
41800;BME280;27468;47.460;19.034;2022-07-17T12:12:56;101154.25;;;24.63;22.51
41800;BME280;27468;47.460;19.034;2022-07-17T12:15:34;101165.81;;;24.65;22.49
41800;BME280;27468;47.460;19.034;2022-07-17T12:18:01;101170.41;;;24.77;21.89
41800;BME280;27468;47.460;19.034;2022-07-17T12:20:40;101132.44;;;24.53;22.20
41800;BME280;27468;47.460;19.034;2022-07-17T12:23:05;101156.25;;;24.74;22.58
41800;BME280;27468;47.460;19.034;2022-07-17T12:25:31;101160.91;;;24.84;23.54
41800;BME280;27468;47.460;19.034;2022-07-17T12:27:57;101170.41;;;24.90;22.60
41800;BME280;27468;47.460;19.034;2022-07-17T12:30:22;101162.53;;;24.87;21.94
41800;BME280;27468;47.460;19.034;2022-07-17T12:32:48;101149.16;;;24.85;21.79
41800;BME280;27468;47.460;19.034;2022-07-17T12:35:14;101166.00;;;24.89;21.69
41800;BME280;27468;47.460;19.034;2022-07-17T12:37:40;101148.06;;;24.75;21.53
41800;BME280;27468;47.460;19.034;2022-07-17T12:40:07;101169.66;;;24.88;21.81
41800;BME280;27468;47.460;19.034;2022-07-17T12:42:32;101156.06;;;24.89;21.91
41800;BME280;27468;47.460;19.034;2022-07-17T12:44:58;101127.81;;;24.82;21.77
41800;BME280;27468;47.460;19.034;2022-07-17T12:47:24;101144.59;;;25.00;21.58
41800;BME280;27468;47.460;19.034;2022-07-17T12:49:49;101121.75;;;24.91;21.33
41800;BME280;27468;47.460;19.034;2022-07-17T12:52:14;101107.72;;;24.86;21.93
41800;BME280;27468;47.460;19.034;2022-07-17T12:54:40;101139.63;;;25.07;21.54
41800;BME280;27468;47.460;19.034;2022-07-17T12:57:06;101143.00;;;25.10;21.04
41800;BME280;27468;47.460;19.034;2022-07-17T12:59:32;101134.34;;;25.05;20.86